sensor_id;sensor_type;location;lat;lon;timestamp;pressure;altitude;pressure_sealevel;temperature;humidity
12536;BME280;6334;48.696;2.114;2023-04-09T00:01:54;100639.62;;;9.31;61.25
12536;BME280;6334;48.696;2.114;2023-04-09T00:04:24;100635.90;;;9.47;61.12
12536;BME280;6334;48.696;2.114;2023-04-09T00:06:54;100634.88;;;9.31;61.45
12536;BME280;6334;48.696;2.114;2023-04-09T00:09:25;100633.19;;;9.29;61.69
12536;BME280;6334;48.696;2.114;2023-04-09T00:11:55;100632.50;;;9.40;61.27
12536;BME280;6334;48.696;2.114;2023-04-09T00:14:26;100630.67;;;9.15;61.67
12536;BME280;6334;48.696;2.114;2023-04-09T00:16:57;100628.75;;;9.09;62.17
12536;BME280;6334;48.696;2.114;2023-04-09T00:19:28;100623.55;;;9.20;61.84
12536;BME280;6334;48.696;2.114;2023-04-09T00:21:58;100618.25;;;9.28;61.47
12536;BME280;6334;48.696;2.114;2023-04-09T00:24:29;100618.39;;;9.19;61.57
12536;BME280;6334;48.696;2.114;2023-04-09T00:26:59;100621.48;;;9.18;61.64
12536;BME280;6334;48.696;2.114;2023-04-09T00:29:30;100614.06;;;9.15;62.54
12536;BME280;6334;48.696;2.114;2023-04-09T00:32:00;100615.30;;;9.16;61.64
12536;BME280;6334;48.696;2.114;2023-04-09T00:34:30;100614.89;;;9.13;61.63
12536;BME280;6334;48.696;2.114;2023-04-09T00:37:01;100620.00;;;9.04;62.39
12536;BME280;6334;48.696;2.114;2023-04-09T00:39:33;100616.55;;;9.11;62.67
12536;BME280;6334;48.696;2.114;2023-04-09T00:42:03;100612.72;;;9.14;62.36
12536;BME280;6334;48.696;2.114;2023-04-09T00:44:34;100613.81;;;9.15;61.92
12536;BME280;6334;48.696;2.114;2023-04-09T00:47:04;100612.55;;;9.08;61.53
12536;BME280;6334;48.696;2.114;2023-04-09T00:49:35;100615.44;;;9.03;62.20
12536;BME280;6334;48.696;2.114;2023-04-09T00:52:05;100616.88;;;8.91;62.55
12536;BME280;6334;48.696;2.114;2023-04-09T00:54:35;100614.55;;;9.05;62.07
12536;BME280;6334;48.696;2.114;2023-04-09T00:57:06;100611.53;;;9.00;62.44
12536;BME280;6334;48.696;2.114;2023-04-09T00:59:38;100608.83;;;9.11;61.42
12536;BME280;6334;48.696;2.114;2023-04-09T01:02:08;100607.50;;;8.91;62.13
12536;BME280;6334;48.696;2.114;2023-04-09T01:04:39;100610.80;;;9.10;62.68
12536;BME280;6334;48.696;2.114;2023-04-09T01:07:15;100612.37;;;9.06;62.54
12536;BME280;6334;48.696;2.114;2023-04-09T01:09:44;100614.55;;;9.11;61.72
12536;BME280;6334;48.696;2.114;2023-04-09T01:12:17;100609.38;;;9.00;62.19
12536;BME280;6334;48.696;2.114;2023-04-09T01:15:03;100610.34;;;8.78;62.48
12536;BME280;6334;48.696;2.114;2023-04-09T01:20:13;100607.62;;;8.96;62.50
12536;BME280;6334;48.696;2.114;2023-04-09T01:28:18;100598.52;;;8.85;63.09
12536;BME280;6334;48.696;2.114;2023-04-09T01:30:48;100600.11;;;9.11;62.38
12536;BME280;6334;48.696;2.114;2023-04-09T01:33:18;100593.97;;;9.07;62.42
12536;BME280;6334;48.696;2.114;2023-04-09T01:35:48;100592.08;;;8.90;62.34
12536;BME280;6334;48.696;2.114;2023-04-09T01:38:19;100588.15;;;8.85;62.77
12536;BME280;6334;48.696;2.114;2023-04-09T01:40:49;100590.34;;;8.93;62.98
12536;BME280;6334;48.696;2.114;2023-04-09T01:43:20;100591.81;;;8.89;62.34
12536;BME280;6334;48.696;2.114;2023-04-09T01:45:50;100587.11;;;8.92;62.66
12536;BME280;6334;48.696;2.114;2023-04-09T01:48:21;100584.94;;;8.72;63.37
12536;BME280;6334;48.696;2.114;2023-04-09T01:50:51;100584.34;;;9.05;62.05
12536;BME280;6334;48.696;2.114;2023-04-09T01:53:22;100575.25;;;8.76;62.89
12536;BME280;6334;48.696;2.114;2023-04-09T01:55:53;100576.40;;;8.69;63.35
12536;BME280;6334;48.696;2.114;2023-04-09T01:58:23;100576.91;;;8.71;63.47
12536;BME280;6334;48.696;2.114;2023-04-09T02:00:55;100577.59;;;8.80;63.69
12536;BME280;6334;48.696;2.114;2023-04-09T02:03:31;100576.73;;;8.71;63.01
12536;BME280;6334;48.696;2.114;2023-04-09T02:08:59;100572.84;;;8.92;62.62
12536;BME280;6334;48.696;2.114;2023-04-09T02:11:29;100575.62;;;8.83;63.23
12536;BME280;6334;48.696;2.114;2023-04-09T02:14:00;100566.86;;;8.97;62.62
12536;BME280;6334;48.696;2.114;2023-04-09T02:16:31;100563.88;;;8.90;62.46
12536;BME280;6334;48.696;2.114;2023-04-09T02:19:01;100566.30;;;8.78;63.71
12536;BME280;6334;48.696;2.114;2023-04-09T02:21:32;100561.44;;;8.88;62.82
12536;BME280;6334;48.696;2.114;2023-04-09T02:24:03;100561.08;;;8.79;62.90
12536;BME280;6334;48.696;2.114;2023-04-09T02:26:33;100562.13;;;8.67;62.76
12536;BME280;6334;48.696;2.114;2023-04-09T02:29:04;100561.28;;;8.66;62.87
12536;BME280;6334;48.696;2.114;2023-04-09T02:31:34;100564.20;;;8.73;63.40
12536;BME280;6334;48.696;2.114;2023-04-09T02:34:04;100560.42;;;8.79;62.85
12536;BME280;6334;48.696;2.114;2023-04-09T02:36:35;100560.72;;;8.51;63.26
12536;BME280;6334;48.696;2.114;2023-04-09T02:39:05;100556.39;;;8.52;63.81
12536;BME280;6334;48.696;2.114;2023-04-09T02:41:36;100555.29;;;8.60;63.90
12536;BME280;6334;48.696;2.114;2023-04-09T02:44:06;100554.25;;;8.72;63.25
12536;BME280;6334;48.696;2.114;2023-04-09T02:46:38;100550.78;;;8.75;63.38
12536;BME280;6334;48.696;2.114;2023-04-09T02:49:08;100548.70;;;8.71;62.97
12536;BME280;6334;48.696;2.114;2023-04-09T02:51:39;100542.13;;;8.49;63.76
12536;BME280;6334;48.696;2.114;2023-04-09T02:54:09;100543.80;;;8.51;64.00
12536;BME280;6334;48.696;2.114;2023-04-09T02:56:40;100542.86;;;8.64;63.54
12536;BME280;6334;48.696;2.114;2023-04-09T02:59:10;100543.20;;;8.38;63.78
12536;BME280;6334;48.696;2.114;2023-04-09T03:01:41;100546.42;;;8.46;63.75
12536;BME280;6334;48.696;2.114;2023-04-09T03:04:11;100542.29;;;8.50;63.68
12536;BME280;6334;48.696;2.114;2023-04-09T03:06:42;100540.05;;;8.50;63.25
12536;BME280;6334;48.696;2.114;2023-04-09T03:09:12;100540.97;;;8.68;63.38
12536;BME280;6334;48.696;2.114;2023-04-09T03:11:43;100535.98;;;8.68;63.25
12536;BME280;6334;48.696;2.114;2023-04-09T03:14:13;100534.42;;;8.37;63.28
12536;BME280;6334;48.696;2.114;2023-04-09T03:16:43;100540.39;;;8.25;64.15
12536;BME280;6334;48.696;2.114;2023-04-09T03:19:14;100540.61;;;8.30;64.11
12536;BME280;6334;48.696;2.114;2023-04-09T03:21:44;100532.88;;;8.56;62.97
12536;BME280;6334;48.696;2.114;2023-04-09T03:24:16;100533.33;;;8.48;63.49
12536;BME280;6334;48.696;2.114;2023-04-09T03:26:46;100531.17;;;8.47;63.89
12536;BME280;6334;48.696;2.114;2023-04-09T03:29:17;100529.00;;;8.60;63.01
12536;BME280;6334;48.696;2.114;2023-04-09T03:31:47;100522.55;;;8.68;62.88
12536;BME280;6334;48.696;2.114;2023-04-09T03:34:18;100520.65;;;8.47;63.51
12536;BME280;6334;48.696;2.114;2023-04-09T03:36:48;100519.45;;;8.31;63.70
12536;BME280;6334;48.696;2.114;2023-04-09T03:39:19;100513.93;;;8.50;63.79
12536;BME280;6334;48.696;2.114;2023-04-09T03:41:49;100512.70;;;8.46;63.39
12536;BME280;6334;48.696;2.114;2023-04-09T03:44:20;100514.86;;;8.51;63.23
12536;BME280;6334;48.696;2.114;2023-04-09T03:46:50;100510.67;;;8.30;64.04
12536;BME280;6334;48.696;2.114;2023-04-09T03:49:21;100509.35;;;8.30;64.39
12536;BME280;6334;48.696;2.114;2023-04-09T03:51:51;100508.34;;;8.13;65.01
12536;BME280;6334;48.696;2.114;2023-04-09T03:54:22;100504.14;;;7.89;65.95
12536;BME280;6334;48.696;2.114;2023-04-09T03:56:52;100501.18;;;8.05;64.38
12536;BME280;6334;48.696;2.114;2023-04-09T03:59:23;100495.41;;;8.14;64.67
12536;BME280;6334;48.696;2.114;2023-04-09T04:01:53;100500.31;;;8.16;64.17
12536;BME280;6334;48.696;2.114;2023-04-09T04:04:25;100497.35;;;8.19;63.70
12536;BME280;6334;48.696;2.114;2023-04-09T04:06:55;100497.25;;;8.03;63.93
12536;BME280;6334;48.696;2.114;2023-04-09T04:09:26;100501.39;;;8.03;64.21
12536;BME280;6334;48.696;2.114;2023-04-09T04:11:56;100492.61;;;7.31;66.36
12536;BME280;6334;48.696;2.114;2023-04-09T04:14:27;100493.99;;;7.70;65.23
12536;BME280;6334;48.696;2.114;2023-04-09T04:16:57;100497.22;;;7.94;64.72
12536;BME280;6334;48.696;2.114;2023-04-09T04:19:28;100496.48;;;7.84;64.43
12536;BME280;6334;48.696;2.114;2023-04-09T04:21:58;100501.12;;;7.50;66.15
12536;BME280;6334;48.696;2.114;2023-04-09T04:24:29;100498.06;;;7.83;64.21
12536;BME280;6334;48.696;2.114;2023-04-09T04:26:59;100495.83;;;7.75;64.40
12536;BME280;6334;48.696;2.114;2023-04-09T04:29:29;100500.58;;;7.64;65.22
12536;BME280;6334;48.696;2.114;2023-04-09T04:32:00;100499.62;;;7.97;63.58
12536;BME280;6334;48.696;2.114;2023-04-09T04:34:30;100501.53;;;7.94;63.86
12536;BME280;6334;48.696;2.114;2023-04-09T04:37:01;100503.97;;;7.56;64.54
12536;BME280;6334;48.696;2.114;2023-04-09T04:39:31;100505.29;;;7.65;64.50
12536;BME280;6334;48.696;2.114;2023-04-09T04:42:02;100502.06;;;7.64;64.71
12536;BME280;6334;48.696;2.114;2023-04-09T04:44:32;100516.27;;;7.22;66.29
12536;BME280;6334;48.696;2.114;2023-04-09T04:47:03;100519.33;;;7.82;64.19
12536;BME280;6334;48.696;2.114;2023-04-09T04:49:33;100519.77;;;7.77;64.05
12536;BME280;6334;48.696;2.114;2023-04-09T04:52:04;100518.77;;;6.62;68.23
12536;BME280;6334;48.696;2.114;2023-04-09T04:54:34;100515.84;;;7.48;65.23
12536;BME280;6334;48.696;2.114;2023-04-09T04:57:05;100513.61;;;7.60;64.46
12536;BME280;6334;48.696;2.114;2023-04-09T04:59:38;100513.52;;;7.56;65.05
12536;BME280;6334;48.696;2.114;2023-04-09T05:02:09;100517.81;;;7.46;65.40
12536;BME280;6334;48.696;2.114;2023-04-09T05:04:39;100519.09;;;7.58;64.26
12536;BME280;6334;48.696;2.114;2023-04-09T05:07:09;100517.56;;;7.55;64.87
12536;BME280;6334;48.696;2.114;2023-04-09T05:09:40;100519.84;;;7.64;65.25
12536;BME280;6334;48.696;2.114;2023-04-09T05:12:10;100527.02;;;7.48;64.61
12536;BME280;6334;48.696;2.114;2023-04-09T05:14:41;100522.27;;;7.28;65.17
12536;BME280;6334;48.696;2.114;2023-04-09T05:17:11;100528.84;;;7.41;64.92
12536;BME280;6334;48.696;2.114;2023-04-09T05:19:42;100525.97;;;7.64;64.55
12536;BME280;6334;48.696;2.114;2023-04-09T05:22:12;100527.02;;;7.57;64.86
12536;BME280;6334;48.696;2.114;2023-04-09T05:24:43;100532.64;;;7.69;64.16
12536;BME280;6334;48.696;2.114;2023-04-09T05:27:13;100528.48;;;7.47;65.40
12536;BME280;6334;48.696;2.114;2023-04-09T05:29:43;100530.67;;;7.50;65.04
12536;BME280;6334;48.696;2.114;2023-04-09T05:32:14;100530.66;;;7.38;64.91
12536;BME280;6334;48.696;2.114;2023-04-09T05:34:44;100529.75;;;7.60;65.57
12536;BME280;6334;48.696;2.114;2023-04-09T05:37:16;100531.53;;;7.74;64.60
12536;BME280;6334;48.696;2.114;2023-04-09T05:39:46;100529.28;;;7.61;64.46
12536;BME280;6334;48.696;2.114;2023-04-09T05:42:17;100529.72;;;7.47;64.92
12536;BME280;6334;48.696;2.114;2023-04-09T05:44:47;100533.18;;;7.75;65.17
12536;BME280;6334;48.696;2.114;2023-04-09T05:47:18;100533.27;;;7.86;64.49
12536;BME280;6334;48.696;2.114;2023-04-09T05:49:48;100533.86;;;6.40;70.68
12536;BME280;6334;48.696;2.114;2023-04-09T05:52:19;100535.58;;;7.51;66.75
12536;BME280;6334;48.696;2.114;2023-04-09T05:54:49;100536.77;;;7.55;65.33
12536;BME280;6334;48.696;2.114;2023-04-09T05:57:19;100542.94;;;7.81;64.88
12536;BME280;6334;48.696;2.114;2023-04-09T05:59:50;100545.61;;;7.44;66.93
12536;BME280;6334;48.696;2.114;2023-04-09T06:02:20;100545.02;;;7.69;65.57
12536;BME280;6334;48.696;2.114;2023-04-09T06:04:51;100544.09;;;7.90;65.04
12536;BME280;6334;48.696;2.114;2023-04-09T06:07:21;100547.55;;;7.89;65.42
12536;BME280;6334;48.696;2.114;2023-04-09T06:09:52;100545.59;;;7.92;64.78
12536;BME280;6334;48.696;2.114;2023-04-09T06:12:22;100549.86;;;6.82;69.92
12536;BME280;6334;48.696;2.114;2023-04-09T06:14:53;100545.01;;;7.61;66.70
12536;BME280;6334;48.696;2.114;2023-04-09T06:17:23;100548.44;;;7.77;66.15
12536;BME280;6334;48.696;2.114;2023-04-09T06:19:54;100547.97;;;7.68;66.68
12536;BME280;6334;48.696;2.114;2023-04-09T06:22:26;100549.54;;;7.92;66.00
12536;BME280;6334;48.696;2.114;2023-04-09T06:24:57;100556.83;;;8.13;65.14
12536;BME280;6334;48.696;2.114;2023-04-09T06:27:27;100558.02;;;8.05;65.68
12536;BME280;6334;48.696;2.114;2023-04-09T06:29:57;100559.81;;;7.59;68.61
12536;BME280;6334;48.696;2.114;2023-04-09T06:32:28;100554.16;;;7.85;67.65
12536;BME280;6334;48.696;2.114;2023-04-09T06:34:58;100553.22;;;7.97;66.17
12536;BME280;6334;48.696;2.114;2023-04-09T06:37:30;100553.16;;;8.10;67.04
12536;BME280;6334;48.696;2.114;2023-04-09T06:40:01;100561.63;;;7.90;67.60
12536;BME280;6334;48.696;2.114;2023-04-09T06:42:33;100559.84;;;8.06;67.16
12536;BME280;6334;48.696;2.114;2023-04-09T06:45:03;100559.91;;;8.18;66.33
12536;BME280;6334;48.696;2.114;2023-04-09T06:47:34;100563.59;;;8.36;66.52
12536;BME280;6334;48.696;2.114;2023-04-09T06:50:04;100561.88;;;7.89;67.04
12536;BME280;6334;48.696;2.114;2023-04-09T06:52:35;100563.82;;;8.16;66.68
12536;BME280;6334;48.696;2.114;2023-04-09T06:55:05;100560.61;;;8.35;66.12
12536;BME280;6334;48.696;2.114;2023-04-09T06:57:36;100563.01;;;8.39;65.42
12536;BME280;6334;48.696;2.114;2023-04-09T07:00:06;100560.00;;;8.20;65.91
12536;BME280;6334;48.696;2.114;2023-04-09T07:02:37;100560.64;;;8.53;64.16
12536;BME280;6334;48.696;2.114;2023-04-09T07:05:07;100560.55;;;8.73;64.27
12536;BME280;6334;48.696;2.114;2023-04-09T07:07:38;100564.38;;;8.55;65.42
12536;BME280;6334;48.696;2.114;2023-04-09T07:10:08;100567.10;;;8.54;64.54
12536;BME280;6334;48.696;2.114;2023-04-09T07:12:39;100567.61;;;8.74;64.79
12536;BME280;6334;48.696;2.114;2023-04-09T07:15:09;100566.14;;;8.61;65.17
12536;BME280;6334;48.696;2.114;2023-04-09T07:17:40;100563.88;;;8.98;65.17
12536;BME280;6334;48.696;2.114;2023-04-09T07:20:10;100563.98;;;9.72;68.71
12536;BME280;6334;48.696;2.114;2023-04-09T07:22:41;100570.68;;;10.27;67.37
12536;BME280;6334;48.696;2.114;2023-04-09T07:25:11;100568.19;;;10.37;67.73
12536;BME280;6334;48.696;2.114;2023-04-09T07:27:41;100563.79;;;10.13;65.42
12536;BME280;6334;48.696;2.114;2023-04-09T07:30:12;100563.16;;;9.64;64.19
12536;BME280;6334;48.696;2.114;2023-04-09T07:32:42;100566.25;;;9.69;62.95
12536;BME280;6334;48.696;2.114;2023-04-09T07:35:13;100561.91;;;9.62;63.70
12536;BME280;6334;48.696;2.114;2023-04-09T07:37:43;100561.52;;;8.87;65.99
12536;BME280;6334;48.696;2.114;2023-04-09T07:40:14;100565.98;;;9.01;66.62
12536;BME280;6334;48.696;2.114;2023-04-09T07:42:44;100567.05;;;9.47;64.83
12536;BME280;6334;48.696;2.114;2023-04-09T07:45:15;100570.72;;;9.60;64.80
12536;BME280;6334;48.696;2.114;2023-04-09T07:47:45;100576.45;;;9.64;64.56
12536;BME280;6334;48.696;2.114;2023-04-09T07:50:16;100567.87;;;9.34;66.14
12536;BME280;6334;48.696;2.114;2023-04-09T07:52:46;100567.41;;;9.76;64.22
12536;BME280;6334;48.696;2.114;2023-04-09T07:55:17;100564.30;;;10.07;63.13
12536;BME280;6334;48.696;2.114;2023-04-09T07:57:47;100565.88;;;10.00;63.55
12536;BME280;6334;48.696;2.114;2023-04-09T08:00:18;100567.23;;;9.96;64.14
12536;BME280;6334;48.696;2.114;2023-04-09T08:02:49;100571.28;;;10.31;63.23
12536;BME280;6334;48.696;2.114;2023-04-09T08:05:19;100573.98;;;10.28;62.77
12536;BME280;6334;48.696;2.114;2023-04-09T08:07:50;100573.77;;;10.18;63.11
12536;BME280;6334;48.696;2.114;2023-04-09T08:10:20;100572.68;;;10.38;62.81
12536;BME280;6334;48.696;2.114;2023-04-09T08:12:51;100579.05;;;10.50;62.47
12536;BME280;6334;48.696;2.114;2023-04-09T08:15:21;100577.34;;;10.58;62.91
12536;BME280;6334;48.696;2.114;2023-04-09T08:17:52;100574.72;;;10.45;63.24
12536;BME280;6334;48.696;2.114;2023-04-09T08:20:22;100569.36;;;10.25;64.41
12536;BME280;6334;48.696;2.114;2023-04-09T08:22:53;100567.84;;;10.87;61.91
12536;BME280;6334;48.696;2.114;2023-04-09T08:25:23;100568.18;;;10.86;62.45
12536;BME280;6334;48.696;2.114;2023-04-09T08:27:54;100566.28;;;11.01;62.02
12536;BME280;6334;48.696;2.114;2023-04-09T08:30:24;100568.66;;;11.21;60.93
12536;BME280;6334;48.696;2.114;2023-04-09T08:32:54;100566.03;;;11.02;62.90
12536;BME280;6334;48.696;2.114;2023-04-09T08:35:25;100562.73;;;11.37;61.48
12536;BME280;6334;48.696;2.114;2023-04-09T08:37:55;100567.36;;;11.17;62.22
12536;BME280;6334;48.696;2.114;2023-04-09T08:40:26;100562.94;;;11.65;60.74
12536;BME280;6334;48.696;2.114;2023-04-09T08:42:56;100550.95;;;11.63;61.11
12536;BME280;6334;48.696;2.114;2023-04-09T08:45:27;100553.94;;;11.75;61.07
12536;BME280;6334;48.696;2.114;2023-04-09T08:47:57;100558.20;;;11.63;60.97
12536;BME280;6334;48.696;2.114;2023-04-09T08:50:29;100560.03;;;11.86;61.61
12536;BME280;6334;48.696;2.114;2023-04-09T08:53:00;100557.69;;;12.07;60.85
12536;BME280;6334;48.696;2.114;2023-04-09T08:55:29;100559.90;;;12.19;62.05
12536;BME280;6334;48.696;2.114;2023-04-09T08:58:05;100553.72;;;12.34;60.06
12536;BME280;6334;48.696;2.114;2023-04-09T09:00:35;100552.63;;;12.28;60.55
12536;BME280;6334;48.696;2.114;2023-04-09T09:03:07;100552.78;;;12.21;59.88
12536;BME280;6334;48.696;2.114;2023-04-09T09:05:43;100548.89;;;12.77;58.82
12536;BME280;6334;48.696;2.114;2023-04-09T09:08:21;100546.91;;;12.76;58.35
12536;BME280;6334;48.696;2.114;2023-04-09T09:10:43;100545.87;;;12.83;58.30
12536;BME280;6334;48.696;2.114;2023-04-09T09:13:20;100546.42;;;12.93;57.39
12536;BME280;6334;48.696;2.114;2023-04-09T09:15:49;100545.18;;;12.92;56.14
12536;BME280;6334;48.696;2.114;2023-04-09T09:18:20;100551.56;;;13.13;57.03
12536;BME280;6334;48.696;2.114;2023-04-09T09:20:50;100550.23;;;13.15;55.46
12536;BME280;6334;48.696;2.114;2023-04-09T09:23:34;100547.34;;;13.11;55.87
12536;BME280;6334;48.696;2.114;2023-04-09T09:26:19;100539.92;;;13.31;55.29
12536;BME280;6334;48.696;2.114;2023-04-09T09:28:44;100540.39;;;13.43;54.76
12536;BME280;6334;48.696;2.114;2023-04-09T09:31:15;100532.44;;;13.38;54.59
12536;BME280;6334;48.696;2.114;2023-04-09T09:33:45;100526.89;;;13.52;54.17
12536;BME280;6334;48.696;2.114;2023-04-09T09:36:37;100524.42;;;13.59;53.76
12536;BME280;6334;48.696;2.114;2023-04-09T09:38:55;100522.51;;;13.53;54.14
12536;BME280;6334;48.696;2.114;2023-04-09T09:41:25;100530.18;;;13.69;53.45
12536;BME280;6334;48.696;2.114;2023-04-09T09:43:57;100532.84;;;13.90;52.85
12536;BME280;6334;48.696;2.114;2023-04-09T09:46:27;100535.44;;;13.90;52.73
12536;BME280;6334;48.696;2.114;2023-04-09T09:48:58;100527.20;;;13.87;52.28
12536;BME280;6334;48.696;2.114;2023-04-09T09:51:28;100523.77;;;14.01;52.74
12536;BME280;6334;48.696;2.114;2023-04-09T09:53:58;100521.92;;;14.06;52.78
12536;BME280;6334;48.696;2.114;2023-04-09T09:56:30;100518.77;;;13.96;50.31
12536;BME280;6334;48.696;2.114;2023-04-09T09:59:19;100523.88;;;14.06;51.87
12536;BME280;6334;48.696;2.114;2023-04-09T10:01:44;100521.80;;;13.98;51.38
12536;BME280;6334;48.696;2.114;2023-04-09T10:04:14;100519.42;;;14.09;49.38
12536;BME280;6334;48.696;2.114;2023-04-09T10:06:45;100520.62;;;14.22;49.91
12536;BME280;6334;48.696;2.114;2023-04-09T10:09:15;100521.59;;;14.21;50.37
12536;BME280;6334;48.696;2.114;2023-04-09T10:11:45;100519.86;;;14.22;49.51
12536;BME280;6334;48.696;2.114;2023-04-09T10:14:19;100520.41;;;14.20;50.75
12536;BME280;6334;48.696;2.114;2023-04-09T10:16:49;100512.47;;;14.25;50.85
12536;BME280;6334;48.696;2.114;2023-04-09T10:19:20;100515.31;;;14.02;50.57
12536;BME280;6334;48.696;2.114;2023-04-09T10:21:55;100508.17;;;14.16;49.68
12536;BME280;6334;48.696;2.114;2023-04-09T10:24:23;100511.68;;;14.39;49.52
12536;BME280;6334;48.696;2.114;2023-04-09T10:26:54;100516.36;;;14.52;49.14
12536;BME280;6334;48.696;2.114;2023-04-09T10:29:27;100511.40;;;14.66;51.71
12536;BME280;6334;48.696;2.114;2023-04-09T10:32:04;100506.11;;;14.49;49.66
12536;BME280;6334;48.696;2.114;2023-04-09T10:34:34;100512.44;;;14.34;49.92
12536;BME280;6334;48.696;2.114;2023-04-09T10:37:05;100514.00;;;14.40;51.06
12536;BME280;6334;48.696;2.114;2023-04-09T10:39:37;100506.84;;;14.67;46.46
12536;BME280;6334;48.696;2.114;2023-04-09T10:42:10;100504.76;;;14.64;48.57
12536;BME280;6334;48.696;2.114;2023-04-09T10:44:38;100499.22;;;14.55;47.49
12536;BME280;6334;48.696;2.114;2023-04-09T10:47:09;100502.11;;;14.58;48.74
12536;BME280;6334;48.696;2.114;2023-04-09T10:49:40;100503.88;;;14.61;48.72
12536;BME280;6334;48.696;2.114;2023-04-09T10:52:10;100506.06;;;14.39;49.42
12536;BME280;6334;48.696;2.114;2023-04-09T10:54:41;100504.53;;;14.32;47.58
12536;BME280;6334;48.696;2.114;2023-04-09T10:57:11;100507.59;;;14.60;48.81
12536;BME280;6334;48.696;2.114;2023-04-09T10:59:45;100509.44;;;14.08;46.96
12536;BME280;6334;48.696;2.114;2023-04-09T11:02:38;100508.09;;;14.29;45.87
12536;BME280;6334;48.696;2.114;2023-04-09T11:10:27;100495.09;;;14.73;48.34
12536;BME280;6334;48.696;2.114;2023-04-09T11:12:57;100492.06;;;14.93;45.65
12536;BME280;6334;48.696;2.114;2023-04-09T11:15:28;100487.35;;;14.90;44.87
12536;BME280;6334;48.696;2.114;2023-04-09T11:17:58;100480.20;;;15.02;45.91
12536;BME280;6334;48.696;2.114;2023-04-09T11:20:29;100479.52;;;15.13;46.01
12536;BME280;6334;48.696;2.114;2023-04-09T11:22:59;100474.63;;;15.21;45.17
12536;BME280;6334;48.696;2.114;2023-04-09T11:25:30;100475.42;;;15.06;44.22
12536;BME280;6334;48.696;2.114;2023-04-09T11:28:01;100473.73;;;15.28;45.13
12536;BME280;6334;48.696;2.114;2023-04-09T11:30:30;100470.25;;;14.94;47.01
12536;BME280;6334;48.696;2.114;2023-04-09T11:33:01;100464.38;;;15.08;47.12
12536;BME280;6334;48.696;2.114;2023-04-09T11:35:32;100466.98;;;15.12;47.17
12536;BME280;6334;48.696;2.114;2023-04-09T11:38:05;100472.58;;;15.33;46.67
12536;BME280;6334;48.696;2.114;2023-04-09T11:40:35;100473.94;;;15.43;44.32
12536;BME280;6334;48.696;2.114;2023-04-09T11:43:06;100472.62;;;15.52;44.73
12536;BME280;6334;48.696;2.114;2023-04-09T11:45:36;100470.39;;;15.17;45.91
12536;BME280;6334;48.696;2.114;2023-04-09T11:48:06;100470.44;;;15.65;45.17
12536;BME280;6334;48.696;2.114;2023-04-09T11:50:37;100465.83;;;16.05;45.77
12536;BME280;6334;48.696;2.114;2023-04-09T11:53:20;100470.89;;;15.85;44.46
12536;BME280;6334;48.696;2.114;2023-04-09T11:55:50;100475.36;;;16.15;46.04
12536;BME280;6334;48.696;2.114;2023-04-09T11:58:25;100471.63;;;15.85;46.71
12536;BME280;6334;48.696;2.114;2023-04-09T12:00:58;100472.11;;;15.72;44.01
12536;BME280;6334;48.696;2.114;2023-04-09T12:03:29;100473.46;;;15.76;44.10
12536;BME280;6334;48.696;2.114;2023-04-09T12:06:00;100471.74;;;15.23;43.77
12536;BME280;6334;48.696;2.114;2023-04-09T12:08:30;100469.31;;;15.37;45.40
12536;BME280;6334;48.696;2.114;2023-04-09T12:11:13;100468.41;;;15.05;44.80
12536;BME280;6334;48.696;2.114;2023-04-09T12:13:42;100463.66;;;15.55;45.46
12536;BME280;6334;48.696;2.114;2023-04-09T12:16:12;100468.27;;;15.65;46.25
12536;BME280;6334;48.696;2.114;2023-04-09T12:18:42;100462.95;;;15.73;44.89
12536;BME280;6334;48.696;2.114;2023-04-09T12:21:13;100463.64;;;15.99;45.33
12536;BME280;6334;48.696;2.114;2023-04-09T12:23:43;100464.72;;;16.11;44.84
12536;BME280;6334;48.696;2.114;2023-04-09T12:26:14;100460.97;;;16.04;42.52
12536;BME280;6334;48.696;2.114;2023-04-09T12:28:44;100457.77;;;15.77;43.30
12536;BME280;6334;48.696;2.114;2023-04-09T12:31:16;100457.91;;;15.90;42.47
12536;BME280;6334;48.696;2.114;2023-04-09T12:33:47;100449.27;;;15.74;44.13
12536;BME280;6334;48.696;2.114;2023-04-09T12:36:17;100450.20;;;16.14;42.83
12536;BME280;6334;48.696;2.114;2023-04-09T12:38:47;100450.83;;;16.19;42.74
12536;BME280;6334;48.696;2.114;2023-04-09T12:41:18;100442.10;;;16.39;43.13
12536;BME280;6334;48.696;2.114;2023-04-09T12:43:48;100436.35;;;16.57;43.89
12536;BME280;6334;48.696;2.114;2023-04-09T12:46:19;100440.36;;;16.18;42.41
12536;BME280;6334;48.696;2.114;2023-04-09T12:48:49;100439.59;;;16.12;40.74
12536;BME280;6334;48.696;2.114;2023-04-09T12:51:20;100439.97;;;15.96;40.80
12536;BME280;6334;48.696;2.114;2023-04-09T12:53:50;100429.13;;;16.17;41.62
12536;BME280;6334;48.696;2.114;2023-04-09T12:56:21;100424.56;;;16.38;43.41
12536;BME280;6334;48.696;2.114;2023-04-09T12:58:57;100424.23;;;16.58;43.12
12536;BME280;6334;48.696;2.114;2023-04-09T13:01:28;100424.73;;;16.52;42.80
12536;BME280;6334;48.696;2.114;2023-04-09T13:03:58;100427.16;;;16.66;43.89
12536;BME280;6334;48.696;2.114;2023-04-09T13:06:29;100420.84;;;16.72;42.74
12536;BME280;6334;48.696;2.114;2023-04-09T13:08:59;100412.55;;;16.60;43.45
12536;BME280;6334;48.696;2.114;2023-04-09T13:11:30;100411.77;;;16.48;42.74
12536;BME280;6334;48.696;2.114;2023-04-09T13:14:00;100403.72;;;16.67;44.11
12536;BME280;6334;48.696;2.114;2023-04-09T13:16:32;100406.41;;;16.45;41.68
12536;BME280;6334;48.696;2.114;2023-04-09T13:19:03;100403.09;;;16.46;42.49
12536;BME280;6334;48.696;2.114;2023-04-09T13:21:33;100394.77;;;16.41;43.81
12536;BME280;6334;48.696;2.114;2023-04-09T13:24:04;100392.28;;;16.42;42.44
12536;BME280;6334;48.696;2.114;2023-04-09T13:26:34;100393.66;;;16.44;44.32
12536;BME280;6334;48.696;2.114;2023-04-09T13:29:05;100389.36;;;16.38;43.55
12536;BME280;6334;48.696;2.114;2023-04-09T13:31:35;100386.38;;;16.43;44.25
12536;BME280;6334;48.696;2.114;2023-04-09T13:34:06;100375.20;;;16.57;43.23
12536;BME280;6334;48.696;2.114;2023-04-09T13:36:36;100371.48;;;16.52;44.06
12536;BME280;6334;48.696;2.114;2023-04-09T13:39:07;100367.38;;;16.47;44.40
12536;BME280;6334;48.696;2.114;2023-04-09T13:41:37;100371.14;;;16.41;44.98
12536;BME280;6334;48.696;2.114;2023-04-09T13:44:08;100365.66;;;16.43;44.39